createdAt,value
2023-06-17T00:00:40.629Z,58.67
2023-06-17T00:03:14.045Z,59.01
2023-06-17T00:05:46.808Z,59.56
2023-06-17T00:08:19.085Z,59.80
2023-06-17T00:10:51.441Z,59.84
2023-06-17T00:13:26.766Z,59.90
2023-06-17T00:16:00.524Z,60.03
2023-06-17T00:18:34.017Z,60.20
2023-06-17T00:21:06.182Z,60.51
2023-06-17T00:23:38.430Z,60.70
2023-06-17T00:26:11.081Z,60.76
2023-06-17T00:28:45.904Z,60.94
2023-06-17T00:31:18.204Z,60.76
2023-06-17T00:33:50.419Z,61.05
2023-06-17T00:36:22.845Z,61.18
2023-06-17T00:38:55.168Z,61.24
2023-06-17T00:41:27.611Z,61.28
2023-06-17T00:44:02.542Z,61.27
2023-06-17T00:46:41.958Z,61.48
2023-06-17T00:49:15.037Z,61.80
2023-06-17T00:52:00.129Z,62.08
2023-06-17T00:54:37.784Z,62.48
2023-06-17T00:57:14.829Z,62.83
2023-06-17T00:59:50.498Z,62.74
2023-06-17T01:02:27.227Z,62.43
2023-06-17T01:04:59.849Z,62.98
2023-06-17T01:07:41.594Z,63.03
2023-06-17T01:10:26.078Z,63.51
2023-06-17T01:13:01.644Z,63.62
2023-06-17T01:15:38.376Z,63.62
2023-06-17T01:18:11.226Z,63.87
2023-06-17T01:20:45.007Z,64.20
2023-06-17T01:23:19.334Z,64.35
2023-06-17T01:25:59.278Z,64.34
2023-06-17T01:28:31.509Z,64.48
2023-06-17T01:31:04.017Z,64.61
2023-06-17T01:33:37.426Z,64.71
2023-06-17T01:36:19.039Z,64.93
2023-06-17T01:38:55.611Z,65.19
2023-06-17T01:41:44.213Z,65.64
2023-06-17T01:44:19.848Z,65.79
2023-06-17T01:46:52.229Z,66.04
2023-06-17T01:49:24.510Z,66.33
2023-06-17T01:51:56.791Z,66.36
2023-06-17T01:54:29.168Z,66.45
2023-06-17T01:57:04.736Z,66.43
2023-06-17T01:59:37.318Z,66.40
2023-06-17T02:02:10.057Z,66.53
2023-06-17T02:04:42.602Z,66.76
2023-06-17T02:07:14.916Z,67.34
2023-06-17T02:09:47.363Z,67.36
2023-06-17T02:12:22.280Z,67.22
2023-06-17T02:14:54.502Z,67.07
2023-06-17T02:17:29.100Z,67.18
2023-06-17T02:20:01.509Z,67.27
2023-06-17T02:22:33.812Z,67.45
2023-06-17T02:25:06.625Z,67.39
2023-06-17T02:27:41.736Z,67.32
2023-06-17T02:30:16.682Z,67.58
2023-06-17T02:32:49.042Z,67.70
2023-06-17T02:35:21.619Z,67.88
2023-06-17T02:37:56.936Z,68.34
2023-06-17T02:40:29.152Z,68.47
2023-06-17T02:43:03.980Z,68.15
2023-06-17T02:45:36.229Z,68.03
2023-06-17T02:48:08.754Z,68.24
2023-06-17T02:50:41.661Z,68.56
2023-06-17T02:53:13.842Z,68.78
2023-06-17T02:55:48.055Z,69.04
2023-06-17T02:58:22.930Z,69.10
2023-06-17T03:00:55.614Z,68.99
2023-06-17T03:03:35.537Z,69.25
2023-06-17T03:06:10.628Z,69.24
2023-06-17T03:08:44.962Z,69.09
2023-06-17T03:11:17.220Z,69.04
2023-06-17T03:13:52.033Z,69.07
2023-06-17T03:16:24.529Z,69.46
2023-06-17T03:18:56.768Z,69.94
2023-06-17T03:21:30.819Z,70.51
2023-06-17T03:24:04.103Z,70.71
2023-06-17T03:26:36.520Z,71.06
2023-06-17T03:29:11.703Z,71.24
2023-06-17T03:31:43.924Z,71.06
2023-06-17T03:34:16.388Z,71.31
2023-06-17T03:36:48.878Z,71.37
2023-06-17T03:39:21.203Z,71.37
2023-06-17T03:41:53.498Z,71.23
2023-06-17T03:44:28.332Z,70.41
2023-06-17T03:47:02.139Z,70.17
2023-06-17T03:49:34.415Z,70.24
2023-06-17T03:52:06.700Z,70.66
2023-06-17T03:54:40.593Z,71.23
2023-06-17T03:57:12.982Z,71.47
2023-06-17T03:59:47.746Z,71.04
2023-06-17T04:02:20.093Z,70.54
2023-06-17T04:04:53.942Z,70.46
2023-06-17T04:07:26.453Z,70.68
2023-06-17T04:10:07.278Z,70.85
2023-06-17T04:12:50.983Z,71.57
2023-06-17T04:15:25.871Z,71.99
2023-06-17T04:17:58.479Z,72.28
2023-06-17T04:20:31.225Z,72.41
2023-06-17T04:23:03.463Z,72.44
2023-06-17T04:25:38.390Z,72.55
2023-06-17T04:28:14.368Z,72.33
2023-06-17T04:30:49.571Z,72.28
2023-06-17T04:33:21.918Z,71.81
2023-06-17T04:35:55.157Z,71.56
2023-06-17T04:38:27.470Z,71.12
2023-06-17T04:40:59.726Z,71.19
2023-06-17T04:43:34.309Z,71.29
2023-06-17T04:46:09.964Z,71.27
2023-06-17T04:48:43.621Z,71.28
2023-06-17T04:51:19.078Z,71.37
2023-06-17T04:53:51.961Z,71.39
2023-06-17T04:56:28.232Z,71.59
2023-06-17T04:59:00.698Z,71.59
2023-06-17T05:01:35.554Z,71.65
2023-06-17T05:04:08.957Z,71.69
2023-06-17T05:06:41.347Z,71.78
2023-06-17T05:09:13.685Z,71.55
2023-06-17T05:11:46.395Z,71.25
2023-06-17T05:14:18.688Z,70.97
2023-06-17T05:16:53.619Z,70.69
2023-06-17T05:19:25.970Z,70.58
2023-06-17T05:21:58.218Z,70.54
2023-06-17T05:24:30.835Z,70.60
2023-06-17T05:27:03.192Z,69.98
2023-06-17T05:29:38.305Z,69.58
2023-06-17T05:32:14.716Z,69.61
2023-06-17T05:34:47.022Z,69.33
2023-06-17T05:37:19.441Z,69.13
2023-06-17T05:39:51.691Z,69.35
2023-06-17T05:42:23.982Z,69.15
2023-06-17T05:44:56.490Z,68.55
2023-06-17T05:47:31.477Z,68.69
2023-06-17T05:50:03.727Z,68.46
2023-06-17T05:52:35.969Z,68.35
2023-06-17T05:55:08.629Z,68.11
2023-06-17T05:57:41.060Z,66.88
2023-06-17T06:00:14.969Z,65.71
2023-06-17T06:02:49.817Z,63.38
2023-06-17T06:05:22.307Z,61.57
2023-06-17T06:07:54.541Z,60.83
2023-06-17T06:10:28.791Z,59.92
2023-06-17T06:13:01.013Z,59.68
2023-06-17T06:15:33.820Z,58.43
2023-06-17T06:18:09.007Z,57.22
2023-06-17T06:20:41.378Z,56.24
2023-06-17T06:23:13.583Z,54.79
2023-06-17T06:25:45.942Z,52.69
2023-06-17T06:28:18.186Z,52.02
2023-06-17T06:30:50.692Z,49.63
2023-06-17T06:33:25.888Z,49.03
2023-06-17T06:35:58.292Z,48.96
2023-06-17T06:38:30.449Z,49.42
2023-06-17T06:41:02.676Z,49.67
2023-06-17T06:43:35.192Z,49.09
2023-06-17T06:46:08.607Z,46.80
2023-06-17T06:48:43.452Z,46.70
2023-06-17T06:51:15.743Z,46.44
2023-06-17T06:53:48.282Z,45.25
2023-06-17T06:56:20.587Z,45.51
2023-06-17T06:58:52.829Z,45.10
2023-06-17T07:01:25.056Z,44.12
2023-06-17T07:03:59.874Z,43.98
2023-06-17T07:06:32.172Z,43.43
2023-06-17T07:09:07.643Z,42.94
2023-06-17T07:11:39.950Z,43.10
2023-06-17T07:14:12.312Z,41.85
2023-06-17T07:16:44.707Z,40.95
2023-06-17T07:19:19.626Z,40.84
2023-06-17T07:21:52.709Z,40.76
2023-06-17T07:24:25.026Z,40.71
2023-06-17T07:26:57.443Z,40.20
2023-06-17T07:29:29.716Z,40.00
2023-06-17T07:32:02.018Z,39.87
2023-06-17T07:34:36.789Z,38.92
2023-06-17T07:37:09.650Z,38.43
2023-06-17T07:39:41.782Z,38.31
2023-06-17T07:42:14.033Z,38.08
2023-06-17T07:44:46.167Z,37.69
2023-06-17T07:47:18.416Z,36.98
2023-06-17T07:49:53.242Z,36.40
2023-06-17T07:52:25.484Z,36.65
2023-06-17T07:54:57.999Z,35.80
2023-06-17T07:57:30.229Z,35.49
2023-06-17T08:00:02.641Z,35.38
2023-06-17T08:02:34.912Z,35.30
2023-06-17T08:05:10.770Z,35.06
2023-06-17T08:07:43.231Z,34.39
2023-06-17T08:10:15.475Z,34.44
2023-06-17T08:12:48.361Z,34.31
2023-06-17T08:15:21.007Z,34.17
2023-06-17T08:17:54.304Z,33.92
2023-06-17T08:20:29.847Z,33.20
2023-06-17T08:23:02.330Z,33.24
2023-06-17T08:25:34.898Z,32.71
2023-06-17T08:28:07.529Z,31.43
2023-06-17T08:30:39.765Z,31.09
2023-06-17T08:33:12.066Z,31.34
2023-06-17T08:35:46.996Z,31.80
2023-06-17T08:38:19.352Z,30.64
2023-06-17T08:40:51.702Z,30.49
2023-06-17T08:43:27.031Z,31.55
2023-06-17T08:46:02.533Z,31.68
2023-06-17T08:48:36.669Z,31.49
2023-06-17T08:51:13.745Z,31.61
2023-06-17T08:53:48.992Z,32.19
2023-06-17T08:56:21.383Z,32.36
2023-06-17T08:58:55.714Z,31.73
2023-06-17T09:01:29.462Z,32.09
2023-06-17T09:04:03.094Z,31.62
2023-06-17T09:06:38.019Z,31.94
2023-06-17T09:09:10.387Z,32.05
2023-06-17T09:11:45.646Z,31.86
2023-06-17T09:14:17.950Z,32.22
2023-06-17T09:16:50.792Z,32.01
2023-06-17T09:19:23.183Z,32.17
2023-06-17T09:21:59.772Z,31.93
2023-06-17T09:24:34.690Z,31.87
2023-06-17T09:27:07.743Z,31.58
2023-06-17T09:29:39.987Z,31.54
2023-06-17T09:32:12.398Z,31.08
2023-06-17T09:34:53.264Z,31.61
2023-06-17T09:37:28.258Z,31.43
2023-06-17T09:40:07.170Z,31.19
2023-06-17T09:42:39.644Z,31.11
2023-06-17T09:45:14.362Z,30.77
2023-06-17T09:47:46.827Z,30.85
2023-06-17T09:50:19.516Z,30.51
2023-06-17T09:52:55.884Z,30.63
2023-06-17T09:55:28.747Z,30.49
2023-06-17T09:58:03.053Z,31.38
2023-06-17T10:00:36.691Z,31.16
2023-06-17T10:03:08.981Z,29.48
2023-06-17T10:05:41.675Z,28.84
2023-06-17T10:08:17.310Z,28.78
2023-06-17T10:10:50.572Z,28.65
2023-06-17T10:13:26.731Z,28.84
2023-06-17T10:16:02.862Z,29.33
2023-06-17T10:18:38.761Z,29.23
2023-06-17T10:21:15.392Z,29.14
2023-06-17T10:23:51.911Z,28.75
2023-06-17T10:26:25.368Z,28.95
2023-06-17T10:29:08.219Z,29.47
2023-06-17T10:31:44.231Z,29.80
2023-06-17T10:34:21.537Z,28.24
2023-06-17T10:36:55.252Z,28.02
2023-06-17T10:39:30.643Z,27.31
2023-06-17T10:42:06.162Z,26.79
2023-06-17T10:44:48.854Z,27.24
2023-06-17T10:47:27.169Z,27.10
2023-06-17T10:50:01.927Z,26.57
2023-06-17T10:52:34.786Z,27.39
2023-06-17T10:55:10.183Z,27.70
2023-06-17T10:57:42.538Z,27.73
2023-06-17T11:00:15.688Z,26.53
2023-06-17T11:02:48.870Z,26.42
2023-06-17T11:05:21.491Z,25.83
2023-06-17T11:07:54.004Z,25.20
2023-06-17T11:10:32.595Z,25.68
2023-06-17T11:13:05.960Z,25.09
2023-06-17T11:15:38.129Z,25.45
2023-06-17T11:18:10.514Z,25.59
2023-06-17T11:20:42.864Z,25.71
2023-06-17T11:23:16.331Z,25.69
2023-06-17T11:25:54.684Z,25.73
2023-06-17T11:28:27.066Z,24.86
2023-06-17T11:31:01.008Z,24.57
2023-06-17T11:33:36.192Z,24.52
2023-06-17T11:36:15.227Z,24.58
2023-06-17T11:38:50.130Z,24.50
2023-06-17T11:41:25.261Z,25.27
2023-06-17T11:43:59.643Z,25.42
2023-06-17T11:46:32.068Z,25.11
2023-06-17T11:49:04.389Z,24.63
2023-06-17T11:51:36.612Z,24.38
2023-06-17T11:54:10.572Z,23.99
2023-06-17T11:56:45.899Z,23.85
2023-06-17T11:59:19.109Z,23.79
2023-06-17T12:01:53.218Z,23.76
2023-06-17T12:04:25.772Z,23.53
2023-06-17T12:06:58.308Z,23.22
2023-06-17T12:09:31.140Z,22.89
2023-06-17T12:12:05.976Z,23.05
2023-06-17T12:14:42.813Z,23.00
2023-06-17T12:17:23.461Z,22.56
2023-06-17T12:19:55.774Z,22.25
2023-06-17T12:22:28.071Z,22.97
2023-06-17T12:25:00.283Z,23.12
2023-06-17T12:27:36.128Z,23.24
2023-06-17T12:30:09.522Z,23.41
2023-06-17T12:32:44.579Z,23.17
2023-06-17T12:35:17.857Z,23.58
2023-06-17T12:37:55.884Z,23.14
2023-06-17T12:40:29.266Z,22.87
2023-06-17T12:43:04.153Z,22.95
2023-06-17T12:45:36.500Z,23.06
2023-06-17T12:48:09.092Z,23.32
2023-06-17T12:50:42.136Z,22.90
2023-06-17T12:53:14.603Z,22.76
2023-06-17T12:55:46.929Z,22.62
2023-06-17T12:58:21.828Z,22.85
2023-06-17T13:00:54.144Z,22.30
2023-06-17T13:03:26.779Z,22.44
2023-06-17T13:05:59.630Z,22.51
2023-06-17T13:08:31.931Z,22.15
2023-06-17T13:11:04.814Z,21.79
2023-06-17T13:13:39.635Z,21.60
2023-06-17T13:16:12.487Z,21.30
2023-06-17T13:18:44.699Z,21.19
2023-06-17T13:21:16.995Z,20.76
2023-06-17T13:23:49.628Z,20.53
2023-06-17T13:26:23.625Z,20.35
2023-06-17T13:28:58.459Z,20.26
2023-06-17T13:31:30.914Z,19.31
2023-06-17T13:34:03.306Z,19.44
2023-06-17T13:36:36.970Z,19.69
2023-06-17T13:39:09.920Z,19.24
2023-06-17T13:41:42.346Z,19.09
2023-06-17T13:44:17.897Z,19.16
2023-06-17T13:46:50.477Z,18.61
2023-06-17T13:49:23.185Z,18.48
2023-06-17T13:51:55.543Z,18.38
2023-06-17T13:54:28.413Z,18.09
2023-06-17T13:57:00.906Z,18.07
2023-06-17T13:59:36.257Z,17.68
2023-06-17T14:02:08.806Z,17.71
2023-06-17T14:04:41.311Z,17.61
2023-06-17T14:07:13.638Z,17.51
2023-06-17T14:09:46.131Z,17.33
2023-06-17T14:12:18.347Z,17.27
2023-06-17T14:14:53.703Z,17.31
2023-06-17T14:17:28.347Z,17.35
2023-06-17T14:20:00.869Z,16.93
2023-06-17T14:22:33.074Z,16.68
2023-06-17T14:25:05.326Z,16.68
2023-06-17T14:27:44.739Z,16.35
2023-06-17T14:30:20.524Z,16.11
2023-06-17T14:32:53.676Z,16.08
2023-06-17T14:35:26.168Z,16.14
2023-06-17T14:37:58.350Z,16.09
2023-06-17T14:40:30.564Z,15.93
2023-06-17T14:43:03.763Z,15.61
2023-06-17T14:45:38.757Z,15.84
2023-06-17T14:48:11.207Z,15.99
2023-06-17T14:50:43.591Z,16.11
2023-06-17T14:53:15.736Z,15.97
2023-06-17T14:56:06.628Z,15.84
2023-06-17T14:58:38.862Z,15.56
2023-06-17T15:01:13.671Z,15.51
2023-06-17T15:03:45.984Z,15.83
2023-06-17T15:06:18.363Z,15.90
2023-06-17T15:08:50.626Z,15.42
2023-06-17T15:11:22.871Z,15.33
2023-06-17T15:13:55.102Z,15.20
2023-06-17T15:16:30.119Z,15.28
2023-06-17T15:19:02.302Z,15.19
2023-06-17T15:21:34.556Z,15.17
2023-06-17T15:24:07.875Z,15.38
2023-06-17T15:26:40.416Z,15.20
2023-06-17T15:29:12.623Z,15.06
2023-06-17T15:31:48.129Z,14.65
2023-06-17T15:34:20.346Z,14.80
2023-06-17T15:36:55.074Z,14.76
2023-06-17T15:39:29.326Z,14.74
2023-06-17T15:42:01.617Z,15.01
2023-06-17T15:44:34.133Z,14.95
2023-06-17T15:47:09.734Z,14.87
2023-06-17T15:49:42.233Z,15.03
2023-06-17T15:52:14.429Z,15.73
2023-06-17T15:54:46.857Z,16.22
2023-06-17T15:57:20.206Z,16.51
2023-06-17T15:59:52.473Z,18.22
2023-06-17T16:02:27.304Z,18.61
2023-06-17T16:04:59.559Z,18.53
2023-06-17T16:07:33.143Z,19.26
2023-06-17T16:10:05.492Z,19.70
2023-06-17T16:12:38.776Z,19.87
2023-06-17T16:15:11.954Z,19.83
2023-06-17T16:17:46.862Z,19.96
2023-06-17T16:20:19.226Z,19.93
2023-06-17T16:22:51.550Z,19.99
2023-06-17T16:25:23.762Z,20.08
2023-06-17T16:27:56.173Z,20.00
2023-06-17T16:30:28.537Z,19.71
2023-06-17T16:33:03.344Z,19.61
2023-06-17T16:35:35.903Z,19.57
2023-06-17T16:38:08.137Z,19.97
2023-06-17T16:40:40.406Z,20.00
2023-06-17T16:43:12.663Z,20.18
2023-06-17T16:45:45.151Z,20.06
2023-06-17T16:48:20.035Z,19.73
2023-06-17T16:50:52.236Z,19.39
2023-06-17T16:53:24.930Z,19.58
2023-06-17T16:55:57.154Z,18.95
2023-06-17T16:58:29.430Z,18.57
2023-06-17T17:01:01.852Z,18.72
2023-06-17T17:03:39.996Z,18.37
2023-06-17T17:06:12.856Z,18.44
2023-06-17T17:08:45.230Z,18.52
2023-06-17T17:11:17.462Z,18.71
2023-06-17T17:13:50.163Z,19.02
2023-06-17T17:16:23.409Z,19.38
2023-06-17T17:18:58.317Z,19.90
2023-06-17T17:21:30.652Z,20.01
2023-06-17T17:24:05.776Z,20.78
2023-06-17T17:26:38.681Z,21.78
2023-06-17T17:29:11.065Z,22.61
2023-06-17T17:31:43.477Z,23.43
2023-06-17T17:34:18.355Z,24.12
2023-06-17T17:36:50.746Z,24.89
2023-06-17T17:39:22.895Z,25.40
2023-06-17T17:41:55.310Z,25.56
2023-06-17T17:44:27.504Z,26.11
2023-06-17T17:47:06.884Z,26.43
2023-06-17T17:49:41.705Z,26.68
2023-06-17T17:52:13.945Z,27.26
2023-06-17T17:55:00.660Z,27.57
2023-06-17T17:57:33.854Z,27.98
2023-06-17T18:00:06.054Z,28.48
2023-06-17T18:02:38.307Z,28.83
2023-06-17T18:05:14.110Z,29.39
2023-06-17T18:07:48.894Z,30.09
2023-06-17T18:10:22.221Z,30.30
2023-06-17T18:12:54.649Z,30.62
2023-06-17T18:15:26.856Z,31.10
2023-06-17T18:17:59.144Z,31.45
2023-06-17T18:20:33.991Z,32.02
2023-06-17T18:23:06.369Z,32.38
2023-06-17T18:25:38.798Z,32.76
2023-06-17T18:28:11.097Z,33.08
2023-06-17T18:30:44.208Z,33.30
2023-06-17T18:33:16.607Z,33.63
2023-06-17T18:35:51.421Z,33.98
2023-06-17T18:38:23.727Z,34.21
2023-06-17T18:40:56.012Z,34.28
2023-06-17T18:43:28.230Z,34.61
2023-06-17T18:46:00.558Z,34.71
2023-06-17T18:48:33.263Z,34.83
2023-06-17T18:51:08.323Z,35.05
2023-06-17T18:53:41.037Z,35.45
2023-06-17T18:56:13.445Z,35.62
2023-06-17T18:58:45.920Z,36.03
2023-06-17T19:01:18.225Z,36.33
2023-06-17T19:03:50.836Z,36.78
2023-06-17T19:06:25.729Z,36.98
2023-06-17T19:08:57.991Z,36.97
2023-06-17T19:11:30.213Z,37.12
2023-06-17T19:14:09.868Z,37.24
2023-06-17T19:16:42.277Z,37.46
2023-06-17T19:19:14.605Z,37.58
2023-06-17T19:21:49.439Z,37.69
2023-06-17T19:24:22.156Z,37.89
2023-06-17T19:26:54.545Z,38.10
2023-06-17T19:29:26.751Z,38.20
2023-06-17T19:31:59.626Z,38.44
2023-06-17T19:34:31.814Z,38.69
2023-06-17T19:37:06.765Z,38.81
2023-06-17T19:39:39.017Z,39.26
2023-06-17T19:42:11.588Z,39.65
2023-06-17T19:44:44.363Z,40.02
2023-06-17T19:47:18.024Z,40.49
2023-06-17T19:49:50.185Z,40.77
2023-06-17T19:52:25.164Z,41.07
2023-06-17T19:54:58.229Z,41.40
2023-06-17T19:57:33.009Z,41.81
2023-06-17T20:00:05.322Z,42.30
2023-06-17T20:02:37.857Z,42.68
2023-06-17T20:05:12.604Z,43.20
2023-06-17T20:07:47.687Z,44.03
2023-06-17T20:10:20.247Z,44.54
2023-06-17T20:12:58.661Z,44.81
2023-06-17T20:15:31.081Z,45.15
2023-06-17T20:18:03.425Z,45.58
2023-06-17T20:20:35.774Z,45.75
2023-06-17T20:23:11.161Z,46.14
2023-06-17T20:25:43.649Z,46.27
2023-06-17T20:28:16.009Z,46.62
2023-06-17T20:30:48.343Z,46.95
2023-06-17T20:33:20.599Z,47.28
2023-06-17T20:35:55.061Z,47.43
2023-06-17T20:38:29.884Z,47.34
2023-06-17T20:41:02.705Z,46.99
2023-06-17T20:43:35.562Z,46.89
2023-06-17T20:46:10.856Z,46.94
2023-06-17T20:48:43.136Z,47.13
2023-06-17T20:51:15.326Z,47.32
2023-06-17T20:53:50.123Z,47.81
2023-06-17T20:56:23.210Z,47.96
2023-06-17T20:58:56.891Z,47.74
2023-06-17T21:01:29.172Z,48.00
2023-06-17T21:04:01.662Z,48.18
2023-06-17T21:06:35.057Z,48.93
2023-06-17T21:09:10.361Z,48.38
2023-06-17T21:11:42.687Z,48.51
2023-06-17T21:14:14.993Z,48.25
2023-06-17T21:16:47.507Z,48.18
2023-06-17T21:19:19.803Z,48.38
2023-06-17T21:21:51.996Z,48.26
2023-06-17T21:24:26.913Z,48.24
2023-06-17T21:26:59.353Z,47.83
2023-06-17T21:29:31.595Z,47.92
2023-06-17T21:32:03.813Z,48.75
2023-06-17T21:34:36.147Z,49.81
2023-06-17T21:37:09.009Z,50.25
2023-06-17T21:39:43.776Z,49.76
2023-06-17T21:42:16.047Z,49.37
2023-06-17T21:44:48.338Z,49.56
2023-06-17T21:47:21.144Z,49.30
2023-06-17T21:49:53.508Z,49.64
2023-06-17T21:52:25.816Z,50.40
2023-06-17T21:55:00.683Z,50.58
2023-06-17T21:57:33.224Z,51.11
2023-06-17T22:00:06.871Z,50.81
2023-06-17T22:02:39.185Z,50.60
2023-06-17T22:05:12.045Z,51.11
2023-06-17T22:07:44.528Z,51.07
2023-06-17T22:10:19.511Z,50.40
2023-06-17T22:12:51.952Z,50.42
2023-06-17T22:15:24.192Z,50.39
2023-06-17T22:17:57.207Z,50.57
2023-06-17T22:20:29.484Z,50.63
2023-06-17T22:23:01.690Z,49.80
2023-06-17T22:25:36.495Z,49.63
2023-06-17T22:28:08.927Z,49.98
2023-06-17T22:30:41.259Z,49.95
2023-06-17T22:33:13.478Z,50.03
2023-06-17T22:35:46.092Z,50.18
2023-06-17T22:38:18.300Z,50.59
2023-06-17T22:40:53.560Z,50.98
2023-06-17T22:43:25.797Z,50.72
2023-06-17T22:45:58.145Z,50.53
2023-06-17T22:48:30.349Z,50.30
2023-06-17T22:51:02.968Z,49.95
2023-06-17T22:53:35.621Z,50.08
2023-06-17T22:56:10.575Z,49.15
2023-06-17T22:58:42.777Z,48.74
2023-06-17T23:01:15.020Z,48.59
2023-06-17T23:03:47.319Z,48.45
2023-06-17T23:06:19.779Z,48.56
2023-06-17T23:08:52.040Z,48.70
2023-06-17T23:11:26.833Z,48.74
2023-06-17T23:13:59.094Z,48.79
2023-06-17T23:16:31.610Z,48.59
2023-06-17T23:19:03.901Z,48.60
2023-06-17T23:21:38.065Z,48.59
2023-06-17T23:24:10.517Z,48.58
2023-06-17T23:26:46.053Z,48.73
2023-06-17T23:29:18.680Z,48.88
2023-06-17T23:31:51.769Z,48.83
2023-06-17T23:34:24.430Z,48.88
2023-06-17T23:36:56.912Z,48.95
2023-06-17T23:39:29.210Z,49.01
2023-06-17T23:42:04.058Z,49.17
2023-06-17T23:44:36.274Z,49.19
2023-06-17T23:47:08.757Z,49.16
2023-06-17T23:49:42.101Z,49.09
2023-06-17T23:52:14.981Z,49.13
2023-06-17T23:54:47.213Z,49.21
2023-06-17T23:57:22.282Z,49.33
2023-06-17T23:59:54.464Z,49.48
